createdAt,value
2018-10-09T00:01:21.897Z,12.10
2018-10-09T00:03:56.941Z,11.93
2018-10-09T00:06:31.617Z,13.47
2018-10-09T00:09:08.460Z,11.70
2018-10-09T00:11:43.748Z,11.77
2018-10-09T00:14:18.505Z,12.47
2018-10-09T00:16:53.352Z,11.57
2018-10-09T00:19:28.356Z,12.33
2018-10-09T00:22:03.501Z,12.23
2018-10-09T00:24:38.394Z,12.03
2018-10-09T00:27:13.362Z,12.00
2018-10-09T00:29:48.603Z,11.97
2018-10-09T00:32:18.089Z,13.10
2018-10-09T00:34:48.243Z,13.80
2018-10-09T00:37:24.410Z,13.63
2018-10-09T00:39:59.801Z,14.00
2018-10-09T00:42:34.961Z,13.37
2018-10-09T00:45:10.480Z,14.17
2018-10-09T00:47:47.314Z,14.20
2018-10-09T00:50:22.363Z,14.40
2018-10-09T00:52:57.234Z,14.67
2018-10-09T00:55:32.230Z,14.57
2018-10-09T00:58:07.672Z,13.63
2018-10-09T01:00:42.660Z,14.30
2018-10-09T01:03:17.946Z,15.27
2018-10-09T01:05:52.842Z,14.17
2018-10-09T01:08:28.079Z,14.50
2018-10-09T01:11:03.244Z,14.93
2018-10-09T01:13:38.016Z,14.50
2018-10-09T01:16:13.309Z,14.63
2018-10-09T01:18:48.605Z,14.90
2018-10-09T01:21:23.850Z,14.73
2018-10-09T01:23:58.724Z,14.17
2018-10-09T01:26:34.691Z,15.30
2018-10-09T01:29:09.714Z,15.70
2018-10-09T01:31:44.654Z,16.50
2018-10-09T01:34:19.380Z,14.57
2018-10-09T01:36:54.948Z,15.70
2018-10-09T01:39:30.035Z,15.10
2018-10-09T01:42:05.829Z,14.90
2018-10-09T01:44:41.009Z,15.67
2018-10-09T01:47:16.164Z,15.10
2018-10-09T01:49:50.981Z,14.90
2018-10-09T01:52:25.746Z,16.00
2018-10-09T01:55:00.585Z,14.60
2018-10-09T01:57:35.482Z,16.23
2018-10-09T02:00:11.961Z,16.47
2018-10-09T02:02:47.032Z,15.80
2018-10-09T02:05:21.841Z,16.70
2018-10-09T02:07:56.615Z,15.77
2018-10-09T02:10:31.396Z,16.77
2018-10-09T02:13:06.698Z,16.73
2018-10-09T02:15:41.823Z,16.10
2018-10-09T02:18:16.744Z,16.17
2018-10-09T02:20:51.642Z,14.67
2018-10-09T02:23:26.621Z,14.37
2018-10-09T02:26:01.771Z,15.43
2018-10-09T02:28:36.432Z,16.10
2018-10-09T02:31:11.457Z,16.20
2018-10-09T02:33:46.815Z,15.00
2018-10-09T02:36:22.273Z,15.47
2018-10-09T02:38:57.135Z,16.83
2018-10-09T02:41:31.846Z,16.27
2018-10-09T02:44:07.403Z,16.43
2018-10-09T02:46:42.743Z,16.47
2018-10-09T02:49:17.727Z,15.87
2018-10-09T02:51:52.468Z,16.07
2018-10-09T02:54:27.596Z,15.67
2018-10-09T02:57:03.213Z,16.60
2018-10-09T02:59:38.712Z,15.53
2018-10-09T03:02:13.770Z,16.00
2018-10-09T03:04:49.561Z,16.87
2018-10-09T03:07:24.472Z,16.30
2018-10-09T03:09:59.456Z,16.10
2018-10-09T03:12:34.357Z,15.97
2018-10-09T03:15:09.554Z,16.03
2018-10-09T03:17:44.737Z,15.87
2018-10-09T03:20:19.664Z,15.40
2018-10-09T03:22:54.916Z,15.77
2018-10-09T03:25:26.429Z,15.33
2018-10-09T03:28:01.089Z,16.63
2018-10-09T03:30:36.536Z,15.70
2018-10-09T03:33:11.371Z,14.83
2018-10-09T03:35:46.165Z,15.53
2018-10-09T03:38:21.115Z,16.00
2018-10-09T03:40:56.486Z,15.27
2018-10-09T03:43:31.612Z,16.10
2018-10-09T03:46:06.744Z,16.50
2018-10-09T03:48:42.341Z,16.23
2018-10-09T03:51:17.159Z,15.20
2018-10-09T03:53:52.876Z,15.27
2018-10-09T03:56:27.958Z,15.90
2018-10-09T03:59:03.098Z,14.17
2018-10-09T04:01:38.707Z,14.60
2018-10-09T04:04:13.770Z,15.00
2018-10-09T04:06:48.605Z,15.70
2018-10-09T04:09:23.442Z,15.73
2018-10-09T04:11:58.673Z,15.00
2018-10-09T04:14:33.765Z,14.97
2018-10-09T04:17:08.605Z,15.10
2018-10-09T04:19:43.661Z,15.00
2018-10-09T04:22:21.766Z,15.40
2018-10-09T04:24:56.636Z,15.63
2018-10-09T04:27:31.534Z,15.10
2018-10-09T04:30:06.754Z,16.00
2018-10-09T04:32:41.826Z,14.97
2018-10-09T04:35:16.445Z,15.07
2018-10-09T04:37:51.593Z,15.60
2018-10-09T04:40:26.534Z,15.73
2018-10-09T04:43:02.297Z,16.10
2018-10-09T04:45:37.688Z,15.50
2018-10-09T04:48:12.686Z,17.00
2018-10-09T04:50:48.473Z,15.50
2018-10-09T04:53:23.333Z,14.90
2018-10-09T04:55:58.483Z,14.77
2018-10-09T04:58:33.507Z,15.10
2018-10-09T05:01:08.463Z,15.40
2018-10-09T05:03:43.285Z,15.33
2018-10-09T05:06:18.228Z,14.23
2018-10-09T05:08:53.114Z,14.97
2018-10-09T05:11:27.965Z,15.40
2018-10-09T05:14:02.786Z,15.30
2018-10-09T05:16:37.817Z,14.87
2018-10-09T05:19:12.656Z,16.77
2018-10-09T05:21:47.348Z,14.20
2018-10-09T05:24:19.074Z,16.17
2018-10-09T05:26:54.300Z,16.50
2018-10-09T05:29:29.110Z,14.40
2018-10-09T05:32:04.080Z,15.60
2018-10-09T05:34:39.481Z,14.73
2018-10-09T05:37:14.220Z,15.40
2018-10-09T05:39:49.114Z,14.93
2018-10-09T05:42:23.874Z,15.60
2018-10-09T05:44:58.967Z,15.57
2018-10-09T05:47:34.154Z,16.73
2018-10-09T05:50:10.216Z,16.90
2018-10-09T05:52:45.085Z,14.97
2018-10-09T05:55:20.822Z,15.37
2018-10-09T05:57:55.876Z,15.70
2018-10-09T06:00:31.079Z,16.37
2018-10-09T06:03:07.101Z,17.23
2018-10-09T06:05:41.943Z,16.30
2018-10-09T06:08:16.740Z,16.70
2018-10-09T06:10:51.708Z,16.27
2018-10-09T06:13:26.489Z,16.47
2018-10-09T06:16:01.743Z,17.93
2018-10-09T06:18:36.598Z,16.40
2018-10-09T06:21:11.433Z,16.63
2018-10-09T06:23:46.912Z,15.20
2018-10-09T06:26:22.013Z,16.60
2018-10-09T06:28:57.117Z,16.83
2018-10-09T06:31:33.162Z,16.73
2018-10-09T06:34:08.255Z,16.87
2018-10-09T06:36:43.298Z,17.50
2018-10-09T06:39:18.479Z,16.47
2018-10-09T06:41:53.501Z,16.80
2018-10-09T06:44:28.401Z,16.50
2018-10-09T06:47:03.614Z,15.80
2018-10-09T06:49:38.620Z,15.70
2018-10-09T06:52:13.632Z,15.90
2018-10-09T06:54:48.584Z,15.53
2018-10-09T06:57:24.343Z,17.90
2018-10-09T06:59:59.524Z,17.13
2018-10-09T07:02:34.594Z,17.30
2018-10-09T07:05:10.029Z,17.57
2018-10-09T07:07:45.254Z,17.60
2018-10-09T07:10:20.236Z,17.33
2018-10-09T07:12:55.409Z,17.43
2018-10-09T07:15:31.126Z,18.07
2018-10-09T07:18:06.396Z,17.57
2018-10-09T07:20:41.264Z,17.53
2018-10-09T07:23:16.058Z,17.87
2018-10-09T07:25:51.091Z,17.33
2018-10-09T07:28:26.667Z,18.90
2018-10-09T07:31:01.497Z,19.37
2018-10-09T07:33:36.935Z,18.73
2018-10-09T07:36:12.838Z,19.83
2018-10-09T07:38:47.894Z,20.20
2018-10-09T07:41:23.051Z,19.10
2018-10-09T07:43:58.165Z,17.70
2018-10-09T07:46:33.193Z,18.30
2018-10-09T07:49:08.173Z,19.77
2018-10-09T07:51:42.942Z,19.10
2018-10-09T07:54:18.647Z,19.50
2018-10-09T07:56:54.608Z,19.37
2018-10-09T07:59:29.400Z,19.70
2018-10-09T08:02:04.184Z,19.10
2018-10-09T08:04:39.271Z,20.40
2018-10-09T08:07:14.480Z,19.73
2018-10-09T08:09:50.136Z,21.17
2018-10-09T08:12:25.538Z,20.73
2018-10-09T08:15:00.234Z,21.80
2018-10-09T08:17:36.097Z,22.10
2018-10-09T08:20:11.482Z,22.93
2018-10-09T08:22:47.213Z,22.60
2018-10-09T08:25:22.751Z,22.40
2018-10-09T08:27:57.662Z,21.10
2018-10-09T08:30:32.986Z,21.80
2018-10-09T08:33:08.069Z,23.37
2018-10-09T08:35:43.361Z,21.40
2018-10-09T08:38:18.437Z,22.70
2018-10-09T08:40:53.550Z,21.87
2018-10-09T08:43:28.292Z,23.60
2018-10-09T08:46:02.155Z,22.10
2018-10-09T08:48:37.247Z,21.40
2018-10-09T08:51:13.748Z,20.77
2018-10-09T08:53:48.586Z,21.23
2018-10-09T08:56:23.494Z,22.53
2018-10-09T08:58:58.623Z,22.37
2018-10-09T09:01:34.082Z,21.97
2018-10-09T09:04:09.499Z,22.47
2018-10-09T09:06:44.358Z,21.90
2018-10-09T09:09:19.372Z,22.87
2018-10-09T09:11:54.162Z,23.20
2018-10-09T09:14:29.261Z,22.30
2018-10-09T09:17:04.299Z,23.40
2018-10-09T09:19:39.251Z,22.60
2018-10-09T09:22:14.106Z,24.63
2018-10-09T09:24:49.035Z,23.37
2018-10-09T09:27:24.084Z,22.87
2018-10-09T09:29:59.100Z,23.13
2018-10-09T09:32:34.028Z,24.10
2018-10-09T09:35:09.283Z,24.10
2018-10-09T09:37:44.866Z,23.87
2018-10-09T09:40:20.213Z,24.50
2018-10-09T09:42:55.071Z,23.77
2018-10-09T09:45:30.496Z,24.23
2018-10-09T09:48:05.451Z,25.07
2018-10-09T09:50:40.547Z,24.27
2018-10-09T09:53:15.948Z,24.93
2018-10-09T09:55:50.681Z,24.10
2018-10-09T09:58:22.834Z,24.40
2018-10-09T10:01:02.629Z,23.80
2018-10-09T10:03:38.517Z,23.50
2018-10-09T10:06:13.944Z,23.97
2018-10-09T10:08:49.083Z,24.00
2018-10-09T10:11:24.063Z,23.57
2018-10-09T10:13:59.180Z,24.93
2018-10-09T10:16:36.507Z,24.40
2018-10-09T10:19:12.214Z,23.70
2018-10-09T10:21:48.332Z,24.10
2018-10-09T10:24:23.317Z,24.40
2018-10-09T10:26:58.143Z,22.97
2018-10-09T10:29:33.437Z,24.00
2018-10-09T10:32:08.735Z,24.13
2018-10-09T10:34:44.078Z,22.77
2018-10-09T10:37:19.392Z,24.03
2018-10-09T10:39:55.006Z,24.57
2018-10-09T10:42:30.232Z,23.27
2018-10-09T10:45:06.000Z,24.63
2018-10-09T10:47:35.412Z,25.80
2018-10-09T10:50:10.792Z,24.87
2018-10-09T10:52:46.411Z,25.40
2018-10-09T10:55:22.044Z,24.87
2018-10-09T10:57:56.930Z,25.53
2018-10-09T11:00:31.875Z,25.37
2018-10-09T11:03:07.372Z,25.50
2018-10-09T11:05:42.598Z,26.70
2018-10-09T11:08:17.598Z,26.33
2018-10-09T11:10:52.718Z,26.37
2018-10-09T11:13:33.284Z,26.70
2018-10-09T11:16:08.721Z,25.63
2018-10-09T11:18:43.834Z,24.93
2018-10-09T11:21:18.930Z,27.27
2018-10-09T11:23:53.874Z,25.87
2018-10-09T11:26:28.561Z,25.50
2018-10-09T11:29:03.445Z,26.17
2018-10-09T11:31:38.584Z,27.33
2018-10-09T11:34:13.935Z,26.60
2018-10-09T11:36:49.492Z,26.80
2018-10-09T11:39:25.003Z,25.30
2018-10-09T11:42:00.420Z,26.70
2018-10-09T11:44:35.437Z,26.30
2018-10-09T11:47:10.619Z,29.20
2018-10-09T11:49:45.543Z,23.23
2018-10-09T11:52:20.793Z,25.60
2018-10-09T11:54:55.872Z,26.40
2018-10-09T11:57:31.077Z,23.53
2018-10-09T12:00:06.813Z,24.90
2018-10-09T12:02:41.925Z,24.50
2018-10-09T12:05:16.743Z,25.30
2018-10-09T12:07:52.117Z,23.77
2018-10-09T12:10:27.123Z,23.23
2018-10-09T12:13:02.833Z,24.80
2018-10-09T12:15:37.627Z,25.30
2018-10-09T12:18:12.987Z,23.20
2018-10-09T12:20:48.820Z,24.67
2018-10-09T12:23:24.797Z,24.47
2018-10-09T12:25:59.780Z,24.30
2018-10-09T12:28:34.768Z,23.70
2018-10-09T12:31:10.199Z,24.67
2018-10-09T12:33:44.915Z,23.50
2018-10-09T12:36:19.814Z,24.47
2018-10-09T12:38:54.790Z,25.43
2018-10-09T12:41:29.578Z,24.00
2018-10-09T12:44:04.639Z,23.40
2018-10-09T12:46:40.218Z,25.33
2018-10-09T12:49:15.178Z,25.10
2018-10-09T12:51:50.443Z,25.63
2018-10-09T12:54:25.691Z,21.57
2018-10-09T12:57:00.861Z,21.07
2018-10-09T12:59:36.110Z,23.43
2018-10-09T13:02:11.498Z,23.10
2018-10-09T13:04:46.384Z,23.90
2018-10-09T13:07:21.567Z,24.93
2018-10-09T13:09:56.456Z,23.63
2018-10-09T13:12:31.419Z,23.70
2018-10-09T13:15:07.277Z,22.47
2018-10-09T13:17:42.356Z,22.10
2018-10-09T13:20:17.409Z,21.90
2018-10-09T13:22:52.361Z,22.90
2018-10-09T13:25:28.552Z,21.50
2018-10-09T13:28:03.795Z,20.53
2018-10-09T13:30:38.974Z,20.47
2018-10-09T13:33:13.794Z,21.07
2018-10-09T13:35:49.060Z,19.63
2018-10-09T13:38:24.181Z,19.13
2018-10-09T13:40:59.109Z,19.70
2018-10-09T13:43:34.113Z,19.30
2018-10-09T13:46:09.681Z,18.73
2018-10-09T13:48:44.883Z,18.20
2018-10-09T13:51:20.856Z,19.57
2018-10-09T13:53:55.750Z,18.80
2018-10-09T13:56:30.858Z,17.60
2018-10-09T13:59:06.184Z,16.47
2018-10-09T14:01:45.004Z,15.53
2018-10-09T14:04:20.163Z,15.43
2018-10-09T14:06:55.476Z,14.60
2018-10-09T14:09:30.728Z,12.90
2018-10-09T14:12:06.501Z,13.83
2018-10-09T14:14:41.406Z,13.37
2018-10-09T14:17:16.246Z,14.67
2018-10-09T14:19:51.070Z,14.73
2018-10-09T14:22:26.459Z,17.40
2018-10-09T14:25:01.644Z,14.80
2018-10-09T14:27:37.042Z,13.60
2018-10-09T14:30:11.836Z,12.97
2018-10-09T14:32:46.733Z,13.33
2018-10-09T14:35:21.769Z,13.00
2018-10-09T14:37:56.744Z,13.57
2018-10-09T14:40:32.036Z,13.17
2018-10-09T14:43:07.620Z,13.57
2018-10-09T14:45:42.616Z,12.40
2018-10-09T14:48:17.293Z,12.57
2018-10-09T14:50:52.176Z,11.47
2018-10-09T14:53:27.160Z,12.23
2018-10-09T14:56:02.004Z,14.63
2018-10-09T14:58:37.797Z,15.43
2018-10-09T15:01:12.792Z,13.53
2018-10-09T15:03:47.948Z,13.10
2018-10-09T15:06:22.949Z,14.37
2018-10-09T15:08:57.934Z,12.70
2018-10-09T15:11:33.271Z,13.87
2018-10-09T15:14:08.136Z,13.57
2018-10-09T15:16:42.868Z,14.80
2018-10-09T15:19:18.223Z,14.67
2018-10-09T15:21:53.397Z,13.33
2018-10-09T15:24:28.214Z,15.27
2018-10-09T15:27:03.092Z,14.03
2018-10-09T15:29:38.089Z,15.47
2018-10-09T15:32:13.110Z,14.80
2018-10-09T15:34:48.137Z,15.87
2018-10-09T15:37:28.064Z,15.37
2018-10-09T15:40:04.029Z,16.20
2018-10-09T15:42:39.955Z,15.20
2018-10-09T15:45:15.143Z,16.60
2018-10-09T15:47:51.122Z,14.80
2018-10-09T15:50:26.989Z,16.57
2018-10-09T15:53:04.779Z,15.63
2018-10-09T15:55:40.101Z,16.27
2018-10-09T15:58:15.418Z,14.33
2018-10-09T16:00:51.141Z,15.77
2018-10-09T16:03:26.184Z,16.10
2018-10-09T16:06:01.322Z,16.13
2018-10-09T16:08:36.445Z,16.53
2018-10-09T16:11:11.453Z,16.03
2018-10-09T16:13:46.099Z,15.30
2018-10-09T16:16:22.063Z,17.93
2018-10-09T16:18:56.813Z,17.20
2018-10-09T16:21:31.680Z,18.97
2018-10-09T16:24:06.563Z,17.70
2018-10-09T16:26:41.750Z,17.37
2018-10-09T16:29:17.175Z,17.87
2018-10-09T16:31:52.401Z,16.53
2018-10-09T16:34:27.312Z,17.00
2018-10-09T16:37:02.251Z,17.57
2018-10-09T16:39:37.416Z,17.53
2018-10-09T16:42:12.542Z,17.70
2018-10-09T16:44:47.445Z,18.63
2018-10-09T16:47:22.486Z,17.63
2018-10-09T16:49:57.803Z,17.30
2018-10-09T16:52:32.950Z,17.40
2018-10-09T16:55:07.700Z,17.30
2018-10-09T16:57:42.797Z,16.73
2018-10-09T17:00:17.680Z,16.87
2018-10-09T17:02:53.050Z,16.77
2018-10-09T17:05:28.237Z,17.40
2018-10-09T17:08:03.184Z,18.10
2018-10-09T17:10:39.331Z,17.43
2018-10-09T17:13:14.454Z,16.10
2018-10-09T17:15:43.744Z,15.50
2018-10-09T17:18:18.794Z,15.00
2018-10-09T17:20:54.134Z,14.63
2018-10-09T17:23:29.253Z,15.00
2018-10-09T17:26:04.953Z,15.37
2018-10-09T17:28:39.977Z,15.10
2018-10-09T17:31:15.150Z,14.27
2018-10-09T17:33:50.143Z,14.93
2018-10-09T17:36:25.240Z,14.63
2018-10-09T17:39:00.339Z,14.00
2018-10-09T17:41:35.619Z,16.20
2018-10-09T17:44:10.875Z,15.27
2018-10-09T17:46:46.150Z,15.00
2018-10-09T17:49:21.441Z,15.47
2018-10-09T17:51:56.456Z,15.23
2018-10-09T17:54:32.110Z,15.87
2018-10-09T17:57:07.318Z,15.97
2018-10-09T17:59:42.328Z,15.50
2018-10-09T18:02:17.716Z,15.80
2018-10-09T18:04:53.373Z,15.77
2018-10-09T18:07:28.813Z,16.20
2018-10-09T18:10:03.759Z,17.00
2018-10-09T18:12:38.759Z,16.17
2018-10-09T18:15:15.068Z,15.40
2018-10-09T18:17:50.135Z,16.43
2018-10-09T18:20:25.227Z,14.90
2018-10-09T18:23:00.312Z,15.00
2018-10-09T18:25:35.241Z,15.83
2018-10-09T18:28:10.273Z,17.23
2018-10-09T18:30:45.950Z,15.87
2018-10-09T18:33:21.181Z,16.03
2018-10-09T18:35:56.638Z,16.27
2018-10-09T18:38:31.702Z,16.67
2018-10-09T18:41:06.760Z,16.27
2018-10-09T18:43:42.786Z,16.97
2018-10-09T18:46:17.887Z,17.10
2018-10-09T18:48:53.073Z,17.20
2018-10-09T18:51:28.047Z,17.17
2018-10-09T18:54:03.266Z,17.87
2018-10-09T18:56:38.435Z,18.13
2018-10-09T18:59:13.485Z,18.90
2018-10-09T19:01:48.657Z,19.00
2018-10-09T19:04:23.713Z,19.80
2018-10-09T19:06:58.851Z,20.37
2018-10-09T19:09:34.662Z,20.77
2018-10-09T19:12:09.662Z,19.03
2018-10-09T19:14:45.210Z,19.97
2018-10-09T19:17:20.021Z,20.20
2018-10-09T19:19:54.943Z,20.63
2018-10-09T19:22:29.752Z,20.70
2018-10-09T19:25:05.394Z,21.33
2018-10-09T19:27:40.192Z,20.30
2018-10-09T19:30:15.431Z,21.23
2018-10-09T19:32:50.498Z,20.67
2018-10-09T19:35:25.642Z,20.47
2018-10-09T19:38:00.602Z,19.97
2018-10-09T19:40:35.918Z,22.40
2018-10-09T19:43:10.936Z,21.43
2018-10-09T19:45:46.663Z,21.43
2018-10-09T19:48:21.475Z,22.87
2018-10-09T19:50:56.876Z,21.47
2018-10-09T19:53:32.737Z,22.60
2018-10-09T19:56:07.879Z,22.47
2018-10-09T19:58:43.744Z,22.03
2018-10-09T20:01:19.244Z,21.77
2018-10-09T20:03:54.938Z,22.00
2018-10-09T20:06:29.903Z,22.00
2018-10-09T20:09:09.899Z,22.33
2018-10-09T20:11:44.971Z,21.47
2018-10-09T20:14:20.106Z,21.70
2018-10-09T20:16:55.825Z,23.60
2018-10-09T20:19:30.738Z,22.70
2018-10-09T20:22:08.883Z,23.10
2018-10-09T20:24:44.357Z,22.93
2018-10-09T20:27:19.311Z,22.57
2018-10-09T20:29:54.392Z,24.07
2018-10-09T20:32:31.848Z,24.33
2018-10-09T20:35:07.134Z,25.73
2018-10-09T20:37:42.166Z,22.97
2018-10-09T20:40:17.325Z,24.47
2018-10-09T20:42:52.929Z,24.37
2018-10-09T20:45:34.587Z,23.77
2018-10-09T20:48:09.605Z,24.83
2018-10-09T20:50:44.549Z,24.27
2018-10-09T20:53:19.534Z,22.93
2018-10-09T20:55:54.545Z,24.00
2018-10-09T20:58:29.827Z,23.20
2018-10-09T21:01:04.998Z,23.90
2018-10-09T21:03:40.253Z,23.10
2018-10-09T21:06:15.413Z,22.87
2018-10-09T21:08:50.517Z,23.60
2018-10-09T21:11:26.221Z,23.93
2018-10-09T21:14:02.679Z,23.60
2018-10-09T21:16:38.292Z,23.50
2018-10-09T21:19:13.631Z,24.07
2018-10-09T21:21:48.534Z,23.83
2018-10-09T21:24:23.653Z,23.90
2018-10-09T21:26:58.598Z,23.87
2018-10-09T21:29:33.590Z,25.07
2018-10-09T21:32:08.298Z,24.30
2018-10-09T21:34:43.205Z,25.23
2018-10-09T21:37:18.152Z,25.70
2018-10-09T21:39:53.081Z,25.10
2018-10-09T21:42:27.984Z,25.90
2018-10-09T21:45:03.175Z,27.20
2018-10-09T21:47:42.381Z,26.70
2018-10-09T21:50:17.248Z,25.63
2018-10-09T21:52:52.315Z,26.33
2018-10-09T21:55:27.859Z,25.90
2018-10-09T21:58:03.398Z,25.03
2018-10-09T22:00:43.798Z,27.43
2018-10-09T22:03:19.079Z,26.43
2018-10-09T22:05:54.138Z,26.60
2018-10-09T22:08:29.111Z,26.10
2018-10-09T22:11:04.836Z,27.00
2018-10-09T22:13:39.793Z,28.30
2018-10-09T22:16:14.944Z,26.93
2018-10-09T22:18:49.856Z,27.43
2018-10-09T22:21:25.593Z,27.20
2018-10-09T22:24:01.173Z,27.03
2018-10-09T22:26:36.184Z,28.47
2018-10-09T22:29:12.165Z,28.70
2018-10-09T22:31:47.855Z,27.57
2018-10-09T22:34:22.573Z,28.30
2018-10-09T22:36:57.640Z,28.60
2018-10-09T22:39:32.416Z,27.50
2018-10-09T22:42:07.595Z,26.97
2018-10-09T22:44:42.321Z,28.20
2018-10-09T22:47:17.536Z,30.00
2018-10-09T22:49:46.846Z,27.67
2018-10-09T22:52:21.998Z,29.93
2018-10-09T22:54:57.537Z,28.60
2018-10-09T22:57:32.382Z,28.37
2018-10-09T23:00:07.803Z,27.87
2018-10-09T23:02:43.204Z,28.30
2018-10-09T23:05:18.999Z,28.83
2018-10-09T23:07:53.993Z,28.70
2018-10-09T23:10:29.377Z,29.20
2018-10-09T23:13:04.450Z,29.10
2018-10-09T23:15:40.681Z,28.63
2018-10-09T23:18:16.325Z,30.63
2018-10-09T23:20:51.303Z,29.37
2018-10-09T23:23:26.262Z,29.30
2018-10-09T23:26:01.490Z,30.53
2018-10-09T23:28:36.385Z,30.00
2018-10-09T23:31:11.614Z,29.40
2018-10-09T23:33:46.485Z,32.27
2018-10-09T23:36:21.360Z,31.03
2018-10-09T23:38:56.209Z,30.80
2018-10-09T23:41:31.541Z,30.87
2018-10-09T23:44:06.700Z,29.93
2018-10-09T23:46:41.489Z,30.07
2018-10-09T23:49:16.425Z,30.77
2018-10-09T23:51:51.232Z,31.67
2018-10-09T23:54:26.459Z,30.20
2018-10-09T23:57:02.346Z,29.90
2018-10-09T23:59:37.172Z,31.90
